KMDT/MDT METAR and TAF weather

Enter ICAO airport designator
Station Type Date Time Source
KMDT METAR 2019/06/26 19:56 UTC NOAA

KMDT 261956Z 27008KT 10SM SCT065 BKN250 31/18 A3002 RMK AO2 SLP163 T03110178


Station Type Date Time Source
KMDT Decoded METAR 2019/06/26 19:56 UTC NOAA

HARRISBURG INTERNATIONAL AIRPORT, PA, United States (KMDT) 40-12N 076-46W 95M
Jun 26, 2019 - 03:56 PM EDT / 2019.06.26 1956 UTC
Wind: from the W (270 degrees) at 9 MPH (8 KT):0
Visibility: 10 mile(s):0
Sky conditions: mostly cloudy
Temperature: 88.0 F (31.1 C)
Dew Point: 64.0 F (17.8 C)
Relative Humidity: 45%
Pressure (altimeter): 30.02 in. Hg (1016 hPa)
ob: KMDT 261956Z 27008KT 10SM SCT065 BKN250 31/18 A3002 RMK AO2 SLP163 T03110178
cycle: 20

Station Type Date Time Source
KMDT TAF 2019/06/26 18:39 UTC NOAA

TAF KMDT 261737Z 2618/2718 31006KT P6SM SKC
FM270300 30004KT P6SM SKC
FM271500 30003KT P6SM SKC

Example: see airport list